Aérodrome :
LOGIN :

S'inscrire | Disclaimer

   EN    FR    IT 

 










Légende :    VFR   VFR Marginal   IFR   IFR Intensif   IFR Très Intensif
Visi : 
Plafond : 
>= 8 km
>= 3000ft
5 à 8 km
1000 à 3000 ft
1500m à 5 km
500 à 1000 ft
800 à 1500m
200 à 500 ft
< 800m
< 200 ft
Symboles :   Orages  Brouillard  Fortes neiges  Fortes précipitations  Vent > 20 kt
SIGMETs :   Divers  Orages  Givrage  Turbulence  Onde Orograph.  Cendres Volcan.






- Altitude de l'aérodrome : 170 ft
- Code IATA : KRP


EKKA - Karup

DERNIER METAR :
  • 050432Z AUTO 19008KT 4100 -RA OVC005/// 15/15 Q0998

METARs EXPIRÉS :
  • 050420Z AUTO 19008KT 160V220 9999 -RA OVC005/// 16/15 Q0999
  • 050350Z AUTO 19007KT 8000 -DZ OVC004/// 15/15 Q0999
  • 050320Z AUTO 20009KT 4200 -DZ BR OVC004/// 15/15 Q1000
  • 050313Z AUTO 20009KT 170V230 5000 -DZ OVC004/// 15/15 Q1000
  • 050250Z AUTO 19007KT 3600 DZ OVC004/// 15/15 Q1000
  • 050235Z AUTO 20008KT 2400 DZ OVC004/// 15/15 Q1000
  • 050220Z AUTO 20006KT 2500 -RA OVC004/// 15/15 Q1001
  • 050201Z AUTO 20006KT 3100 -RA OVC004/// 15/15 Q1001
  • 050150Z AUTO 21006KT 3200 -RA OVC004/// 15/15 Q1001

TAF TAF EKKA
Valide du 05 à 03h jusqu'au 06 à 03h UTC


050210Z 0503/0603 20008KT 8000 SCT008 BKN015
TEMPO 0503/0506 1800 RADZ BR BKN003
BECMG 0505/0508 21015G28KT
TEMPO 0506/0511 3000 -RA BR BKN008
BECMG 0508/0511 24018G32KT
TEMPO 0511/0523 7000 -SHRA BKN015TCU
BECMG 0518/0521 23012KT
TEMPO 0523/0603 3000 SHRAGS BKN015CB



MET'MAP, la Météo Aéronautique d'un coup d'oeil ! - Copyright ORBIFLY Décembre 2007 - Disclaimer

ORBIFLY MET'MAP TEAM :

Programmation & Développement : Alexandra Zaïnal
Sur une idée originale de : Baudouin d'Aumeries
Assistance à la programmation : Marc-Olivier Méhu
Soutien technique & logistique : Manuel Goepfert

Contact : metmap@orbifly.com




SOURCES & CREDITS :

   NOAA